Pantagruel — V7CL4 — position and weather

sailwx.info

Track history (hours):
 
Tides and Currents Weather Stations Pressure Air Temp Water Temp Dewpoint Dewpoint Depression Visibility Wind Speed Wind Dir Waves Ship Positions

Pantagruel

Last reported at 2018-Jun-25 03:58 UTC. Time now 2018-Jun-25 04:26 UTC.
Position S 32°58' E 152°17'.

Length 289 m; draft 9 m.

Type: Cargo ship. MMSI: 538005281.

Date/timePositionNaut miles runAvg speedWind from/ knotsBaromVisibWave heightAir tempDewpointWater temp
2018-Jun-25 03:58S 32°58' E 152°17'1 2.0
2018-Jun-25 03:30S 32°59' E 152°18'2 3.0
2018-Jun-25 02:59S 32°58' E 152°20'4 8.1
2018-Jun-25 02:30S 32°56' E 152°23'4 8.0
2018-Jun-25 02:00S 32°53' E 152°27'4 8.0
2018-Jun-25 01:30S 32°51' E 152°31'4 8.3
2018-Jun-25 01:00S 32°48' E 152°34'4 8.2
2018-Jun-25 00:30S 32°45' E 152°38'1 1.3
2018-Jun-24 23:54S 32°46' E 152°39'1 1.9
2018-Jun-24 23:30S 32°46' E 152°39'1 1.8
2018-Jun-24 23:00S 32°47' E 152°38'1 1.7
2018-Jun-24 22:29S 32°48' E 152°37'1 1.9
2018-Jun-24 21:58S 32°49' E 152°37'1 2.0
2018-Jun-24 21:28S 32°50' E 152°36'1 1.9
2018-Jun-24 21:00S 32°50' E 152°36'1 1.9
2018-Jun-24 20:25S 32°51' E 152°35'1 1.9
2018-Jun-24 20:00S 32°52' E 152°35'1 1.7
2018-Jun-24 19:30S 32°53' E 152°35'1 1.8
2018-Jun-24 19:00S 32°54' E 152°34'1 2.0
2018-Jun-24 18:30S 32°55' E 152°33'1 2.1
2018-Jun-24 18:00S 32°56' E 152°33'1 1.8
2018-Jun-24 17:23S 32°57' E 152°32'1 1.9
2018-Jun-24 16:59S 32°57' E 152°32'1 1.8
2018-Jun-24 16:29S 32°58' E 152°32'1 1.8
2018-Jun-24 15:59S 32°59' E 152°31'1 1.9
2018-Jun-24 15:30S 32°60' E 152°30'1 1.7
2018-Jun-24 14:59S 33°01' E 152°30'1 2.0
2018-Jun-24 14:30S 33°01' E 152°30'3 0.9
2018-Jun-24 11:25S 33°00' E 152°27'3 8.3
2018-Jun-24 11:00S 32°57' E 152°26'1 1.7
2018-Jun-24 10:31S 32°57' E 152°25'1 1.9
2018-Jun-24 10:00S 32°58' E 152°25'1 2.0
2018-Jun-24 09:24S 32°59' E 152°24'1 2.1
2018-Jun-24 08:57S 32°60' E 152°24'1 2.1
2018-Jun-24 08:30S 33°01' E 152°23'1 2.2
2018-Jun-24 07:56S 33°02' E 152°23'1 2.3
2018-Jun-24 07:30S 33°03' E 152°22'1 2.1
2018-Jun-24 06:58S 33°04' E 152°22'1 2.1
2018-Jun-24 06:27S 33°05' E 152°21'1 2.2
2018-Jun-24 06:00S 33°06' E 152°21'1 2.2
2018-Jun-24 05:29S 33°07' E 152°20'1 2.0
2018-Jun-24 04:59S 33°08' E 152°20'1 1.8
2018-Jun-24 04:29S 33°08' E 152°19'1 2.0
2018-Jun-24 03:59S 33°09' E 152°18'1 1.8
2018-Jun-24 03:29S 33°09' E 152°17'1 1.6
2018-Jun-24 02:59S 33°09' E 152°16'1 1.6
2018-Jun-24 02:29S 33°09' E 152°15'1 1.8
2018-Jun-24 01:56S 33°09' E 152°14'1 2.6
2018-Jun-24 01:30S 33°08' E 152°13'5 9.5
2018-Jun-24 01:01S 33°04' E 152°11'510.6
2018-Jun-24 00:31S 33°00' E 152°06'4 8.2
2018-Jun-24 00:01S 32°57' E 152°02'1 1.7
2018-Jun-23 23:30S 32°58' E 152°03'1 1.2
2018-Jun-23 23:00S 32°59' E 152°03'1 1.3
2018-Jun-23 22:30S 32°59' E 152°04'1 1.5
2018-Jun-23 22:00S 32°60' E 152°04'1 1.8
2018-Jun-23 21:30S 33°00' E 152°05'1 2.0
2018-Jun-23 21:00S 33°01' E 152°06'1 2.1
2018-Jun-23 20:27S 33°02' E 152°07'1 1.9
2018-Jun-23 20:00S 33°03' E 152°08'1 1.9
2018-Jun-23 19:24S 33°03' E 152°09'1 1.7
2018-Jun-23 19:00S 33°04' E 152°09'1 1.5
2018-Jun-23 18:30S 33°04' E 152°10'1 1.6
2018-Jun-23 18:00S 33°04' E 152°11'1 1.6
2018-Jun-23 17:30S 33°05' E 152°12'1 1.8
2018-Jun-23 17:00S 33°05' E 152°13'1 1.8
2018-Jun-23 16:27S 33°05' E 152°14'1 1.5
2018-Jun-23 16:00S 33°06' E 152°15'1 1.6
2018-Jun-23 15:30S 33°06' E 152°15'1 1.5
2018-Jun-23 15:00S 33°06' E 152°16'1 1.3
2018-Jun-23 14:24S 33°07' E 152°17'1 1.2
2018-Jun-23 13:54S 33°07' E 152°18'0 1.1
2018-Jun-23 13:30S 33°07' E 152°18'1 1.1
2018-Jun-23 13:00S 33°08' E 152°19'0 0.9
2018-Jun-23 12:30S 33°08' E 152°19'0 1.0
2018-Jun-23 12:00S 33°07' E 152°20'1 2.3
2018-Jun-23 11:30S 33°06' E 152°20'4 8.3
2018-Jun-23 11:00S 33°02' E 152°18'510.2
2018-Jun-23 10:30S 32°58' E 152°15'2 4.1
2018-Jun-23 09:59S 32°56' E 152°15'1 1.2
2018-Jun-23 09:29S 32°56' E 152°16'1 1.4
2018-Jun-23 08:59S 32°56' E 152°16'1 1.4
2018-Jun-23 08:29S 32°56' E 152°17'1 1.5
2018-Jun-23 07:58S 32°56' E 152°18'1 1.3
2018-Jun-23 07:28S 32°56' E 152°19'1 1.3
2018-Jun-23 06:58S 32°57' E 152°19'1 1.3
2018-Jun-23 06:28S 32°57' E 152°20'1 1.4
2018-Jun-23 05:58S 32°58' E 152°20'1 1.5
2018-Jun-23 05:28S 32°58' E 152°21'1 1.5
2018-Jun-23 04:58S 32°59' E 152°21'1 1.5
2018-Jun-23 04:28S 32°60' E 152°21'1 1.5
2018-Jun-23 03:58S 33°01' E 152°20'1 1.5
2018-Jun-23 03:28S 33°01' E 152°20'1 1.7
2018-Jun-23 02:58S 33°02' E 152°20'1 1.8
2018-Jun-23 02:28S 33°03' E 152°19'1 1.6
2018-Jun-23 01:58S 33°04' E 152°19'1 1.7
2018-Jun-23 01:28S 33°04' E 152°18'1 1.6
2018-Jun-23 00:58S 33°05' E 152°18'1 1.7
2018-Jun-23 00:28S 33°06' E 152°17'1 1.4
2018-Jun-22 23:58S 33°06' E 152°16'1 1.2
2018-Jun-22 23:28S 33°06' E 152°16'1 1.6
2018-Jun-22 22:58S 33°07' E 152°15'1 2.1
2018-Jun-22 22:28S 33°07' E 152°14'1 2.3
2018-Jun-22 21:58S 33°08' E 152°13'1 2.3
2018-Jun-22 21:28S 33°09' E 152°12'1 1.8
2018-Jun-22 20:58S 33°10' E 152°12'1 1.5
2018-Jun-22 20:28S 33°10' E 152°11'1 1.3
2018-Jun-22 19:58S 33°11' E 152°11'1 1.1
2018-Jun-22 19:28S 33°11' E 152°10'0 0.9
2018-Jun-22 18:58S 33°11' E 152°10'1 0.9
2018-Jun-22 18:10S 33°12' E 152°09'0 0.8
2018-Jun-22 17:58S 33°12' E 152°09'0 0.8
2018-Jun-22 17:28S 33°12' E 152°09'0 0.8
2018-Jun-22 16:58S 33°13' E 152°08'0 0.8
2018-Jun-22 16:28S 33°13' E 152°08'0 0.6
2018-Jun-22 15:58S 33°13' E 152°07'0 0.7
2018-Jun-22 15:28S 33°13' E 152°07'0 0.7
2018-Jun-22 14:52S 33°13' E 152°06'0 0.7
2018-Jun-22 14:16S 33°13' E 152°06'0 0.9
2018-Jun-22 13:58S 33°13' E 152°06'1 1.0
2018-Jun-22 12:52S 33°12' E 152°04'1 1.6
2018-Jun-22 12:28S 33°12' E 152°04'2 4.7
2018-Jun-22 12:01S 33°14' E 152°02'5 9.9
2018-Jun-22 11:31S 33°16' E 151°56'3 2.0
2018-Jun-22 10:01S 33°18' E 151°54'0 1.1
2018-Jun-22 09:58S 33°18' E 151°54'1 1.2
2018-Jun-22 09:28S 33°18' E 151°55'1 1.3
2018-Jun-22 08:58S 33°18' E 151°55'1 1.3
2018-Jun-22 08:04S 33°17' E 151°57'0 1.2
2018-Jun-22 07:58S 33°17' E 151°57'3 0.5
2018-Jun-22 01:56S 33°15' E 151°59'510.1
2018-Jun-22 01:25S 33°14' E 151°53'0 0.1
2018-Jun-21 20:55S 33°15' E 151°52'1 1.3
2018-Jun-21 20:28S 33°14' E 151°53'4 1.3
2018-Jun-21 17:25S 33°12' E 151°57'1 1.3
2018-Jun-21 16:52S 33°12' E 151°57'1 1.4
2018-Jun-21 16:28S 33°12' E 151°58'1 1.3
2018-Jun-21 15:55S 33°11' E 151°59'1 1.5
2018-Jun-21 15:28S 33°11' E 151°60'2 1.6
2018-Jun-21 14:01S 33°10' E 152°02'0 2.1
2018-Jun-21 13:58S 33°10' E 152°02'1 1.5
2018-Jun-21 13:25S 33°10' E 152°03'1 1.6
2018-Jun-21 12:55S 33°10' E 152°04'1 1.5
2018-Jun-21 12:25S 33°09' E 152°05'1 1.5
2018-Jun-21 11:55S 33°09' E 152°06'1 1.5
2018-Jun-21 11:28S 33°09' E 152°07'1 1.3
2018-Jun-21 10:55S 33°09' E 152°07'2 4.3
2018-Jun-21 10:31S 33°07' E 152°06'5 9.5
2018-Jun-21 10:01S 33°04' E 152°02'4 8.9
2018-Jun-21 09:31S 33°00' E 151°59'1 1.5
2018-Jun-21 09:00S 33°00' E 152°00'1 1.1
2018-Jun-21 08:27S 33°00' E 152°01'0 1.1
2018-Jun-21 08:00S 33°01' E 152°01'1 1.0
2018-Jun-21 07:30S 33°01' E 152°01'0 1.0
2018-Jun-21 07:00S 33°02' E 152°02'0 0.9
2018-Jun-21 06:30S 33°02' E 152°02'1 1.0
2018-Jun-21 05:56S 33°02' E 152°02'0 0.9
2018-Jun-21 05:29S 33°03' E 152°03'0 0.8
2018-Jun-21 04:59S 33°03' E 152°03'0 0.8
2018-Jun-21 04:29S 33°04' E 152°02'2 3.1
2018-Jun-21 04:00S 33°04' E 152°01'3 7.1
2018-Jun-21 03:30S 33°06' E 151°58'1 1.1
2018-Jun-21 02:49S 33°06' E 151°58'0 0.7
2018-Jun-21 02:28S 33°06' E 151°59'0 0.6
2018-Jun-21 01:55S 33°06' E 151°59'0 0.6
2018-Jun-21 01:30S 33°06' E 151°59'0 0.4
2018-Jun-21 01:01S 33°06' E 151°59'1 2.4
2018-Jun-21 00:31S 33°05' E 151°58'3 5.4
2018-Jun-21 00:00S 33°03' E 151°56'1 1.6
2018-Jun-20 23:30S 33°03' E 151°57'1 1.6
2018-Jun-20 23:00S 33°04' E 151°58'1 1.5
2018-Jun-20 22:30S 33°04' E 151°58'1 1.3
2018-Jun-20 22:00S 33°05' E 151°59'0 0.7
2018-Jun-20 21:30S 33°04' E 151°59'2 4.5
2018-Jun-20 21:00S 33°02' E 151°59'5 9.5
2018-Jun-20 20:30S 32°57' E 151°59'4 8.2
2018-Jun-20 20:00S 32°55' E 152°03'5 9.8
2018-Jun-20 19:31S 32°54' E 152°09'5 9.6
2018-Jun-20 19:00S 32°53' E 152°14'510.1
2018-Jun-20 18:30S 32°51' E 152°20'510.1
2018-Jun-20 18:00S 32°49' E 152°26'5 9.9
2018-Jun-20 17:30S 32°46' E 152°30'5 9.7
2018-Jun-20 17:00S 32°43' E 152°34'5 9.5
2018-Jun-20 16:30S 32°39' E 152°38'5 9.3
2018-Jun-20 16:00S 32°36' E 152°42'5 9.4
2018-Jun-20 15:29S 32°32' E 152°46'292 7.0
2018-Jun-18 21:52S 27°46' E 153°54'  
Track history (hours):
 
Tides and Currents Weather Stations Pressure Air Temp Water Temp Dewpoint Dewpoint Depression Visibility Wind Speed Wind Dir Waves Ship Positions

Pantagruel

Last reported at 2018-Jun-25 03:58 UTC. Time now 2018-Jun-25 04:26 UTC.
Position S 32°58' E 152°17'.

Length 289 m; draft 9 m.

Type: Cargo ship. MMSI: 538005281.

Date/timePositionNaut miles runAvg speedWind from/ knotsBaromVisibWave heightAir tempDewpointWater temp
2018-Jun-25 03:58S 32°58' E 152°17'1 2.0
2018-Jun-25 03:30S 32°59' E 152°18'2 3.0
2018-Jun-25 02:59S 32°58' E 152°20'4 8.1
2018-Jun-25 02:30S 32°56' E 152°23'4 8.0
2018-Jun-25 02:00S 32°53' E 152°27'4 8.0
2018-Jun-25 01:30S 32°51' E 152°31'4 8.3
2018-Jun-25 01:00S 32°48' E 152°34'4 8.2
2018-Jun-25 00:30S 32°45' E 152°38'1 1.3
2018-Jun-24 23:54S 32°46' E 152°39'1 1.9
2018-Jun-24 23:30S 32°46' E 152°39'1 1.8
2018-Jun-24 23:00S 32°47' E 152°38'1 1.7
2018-Jun-24 22:29S 32°48' E 152°37'1 1.9
2018-Jun-24 21:58S 32°49' E 152°37'1 2.0
2018-Jun-24 21:28S 32°50' E 152°36'1 1.9
2018-Jun-24 21:00S 32°50' E 152°36'1 1.9
2018-Jun-24 20:25S 32°51' E 152°35'1 1.9
2018-Jun-24 20:00S 32°52' E 152°35'1 1.7
2018-Jun-24 19:30S 32°53' E 152°35'1 1.8
2018-Jun-24 19:00S 32°54' E 152°34'1 2.0
2018-Jun-24 18:30S 32°55' E 152°33'1 2.1
2018-Jun-24 18:00S 32°56' E 152°33'1 1.8
2018-Jun-24 17:23S 32°57' E 152°32'1 1.9
2018-Jun-24 16:59S 32°57' E 152°32'1 1.8
2018-Jun-24 16:29S 32°58' E 152°32'1 1.8
2018-Jun-24 15:59S 32°59' E 152°31'1 1.9
2018-Jun-24 15:30S 32°60' E 152°30'1 1.7
2018-Jun-24 14:59S 33°01' E 152°30'1 2.0
2018-Jun-24 14:30S 33°01' E 152°30'3 0.9
2018-Jun-24 11:25S 33°00' E 152°27'3 8.3
2018-Jun-24 11:00S 32°57' E 152°26'1 1.7
2018-Jun-24 10:31S 32°57' E 152°25'1 1.9
2018-Jun-24 10:00S 32°58' E 152°25'1 2.0
2018-Jun-24 09:24S 32°59' E 152°24'1 2.1
2018-Jun-24 08:57S 32°60' E 152°24'1 2.1
2018-Jun-24 08:30S 33°01' E 152°23'1 2.2
2018-Jun-24 07:56S 33°02' E 152°23'1 2.3
2018-Jun-24 07:30S 33°03' E 152°22'1 2.1
2018-Jun-24 06:58S 33°04' E 152°22'1 2.1
2018-Jun-24 06:27S 33°05' E 152°21'1 2.2
2018-Jun-24 06:00S 33°06' E 152°21'1 2.2
2018-Jun-24 05:29S 33°07' E 152°20'1 2.0
2018-Jun-24 04:59S 33°08' E 152°20'1 1.8
2018-Jun-24 04:29S 33°08' E 152°19'1 2.0
2018-Jun-24 03:59S 33°09' E 152°18'1 1.8
2018-Jun-24 03:29S 33°09' E 152°17'1 1.6
2018-Jun-24 02:59S 33°09' E 152°16'1 1.6
2018-Jun-24 02:29S 33°09' E 152°15'1 1.8
2018-Jun-24 01:56S 33°09' E 152°14'1 2.6
2018-Jun-24 01:30S 33°08' E 152°13'5 9.5
2018-Jun-24 01:01S 33°04' E 152°11'510.6
2018-Jun-24 00:31S 33°00' E 152°06'4 8.2
2018-Jun-24 00:01S 32°57' E 152°02'1 1.7
2018-Jun-23 23:30S 32°58' E 152°03'1 1.2
2018-Jun-23 23:00S 32°59' E 152°03'1 1.3
2018-Jun-23 22:30S 32°59' E 152°04'1 1.5
2018-Jun-23 22:00S 32°60' E 152°04'1 1.8
2018-Jun-23 21:30S 33°00' E 152°05'1 2.0
2018-Jun-23 21:00S 33°01' E 152°06'1 2.1
2018-Jun-23 20:27S 33°02' E 152°07'1 1.9
2018-Jun-23 20:00S 33°03' E 152°08'1 1.9
2018-Jun-23 19:24S 33°03' E 152°09'1 1.7
2018-Jun-23 19:00S 33°04' E 152°09'1 1.5
2018-Jun-23 18:30S 33°04' E 152°10'1 1.6
2018-Jun-23 18:00S 33°04' E 152°11'1 1.6
2018-Jun-23 17:30S 33°05' E 152°12'1 1.8
2018-Jun-23 17:00S 33°05' E 152°13'1 1.8
2018-Jun-23 16:27S 33°05' E 152°14'1 1.5
2018-Jun-23 16:00S 33°06' E 152°15'1 1.6
2018-Jun-23 15:30S 33°06' E 152°15'1 1.5
2018-Jun-23 15:00S 33°06' E 152°16'1 1.3
2018-Jun-23 14:24S 33°07' E 152°17'1 1.2
2018-Jun-23 13:54S 33°07' E 152°18'0 1.1
2018-Jun-23 13:30S 33°07' E 152°18'1 1.1
2018-Jun-23 13:00S 33°08' E 152°19'0 0.9
2018-Jun-23 12:30S 33°08' E 152°19'0 1.0
2018-Jun-23 12:00S 33°07' E 152°20'1 2.3
2018-Jun-23 11:30S 33°06' E 152°20'4 8.3
2018-Jun-23 11:00S 33°02' E 152°18'510.2
2018-Jun-23 10:30S 32°58' E 152°15'2 4.1
2018-Jun-23 09:59S 32°56' E 152°15'1 1.2
2018-Jun-23 09:29S 32°56' E 152°16'1 1.4
2018-Jun-23 08:59S 32°56' E 152°16'1 1.4
2018-Jun-23 08:29S 32°56' E 152°17'1 1.5
2018-Jun-23 07:58S 32°56' E 152°18'1 1.3
2018-Jun-23 07:28S 32°56' E 152°19'1 1.3
2018-Jun-23 06:58S 32°57' E 152°19'1 1.3
2018-Jun-23 06:28S 32°57' E 152°20'1 1.4
2018-Jun-23 05:58S 32°58' E 152°20'1 1.5
2018-Jun-23 05:28S 32°58' E 152°21'1 1.5
2018-Jun-23 04:58S 32°59' E 152°21'1 1.5
2018-Jun-23 04:28S 32°60' E 152°21'1 1.5
2018-Jun-23 03:58S 33°01' E 152°20'1 1.5
2018-Jun-23 03:28S 33°01' E 152°20'1 1.7
2018-Jun-23 02:58S 33°02' E 152°20'1 1.8
2018-Jun-23 02:28S 33°03' E 152°19'1 1.6
2018-Jun-23 01:58S 33°04' E 152°19'1 1.7
2018-Jun-23 01:28S 33°04' E 152°18'1 1.6
2018-Jun-23 00:58S 33°05' E 152°18'1 1.7
2018-Jun-23 00:28S 33°06' E 152°17'1 1.4
2018-Jun-22 23:58S 33°06' E 152°16'1 1.2
2018-Jun-22 23:28S 33°06' E 152°16'1 1.6
2018-Jun-22 22:58S 33°07' E 152°15'1 2.1
2018-Jun-22 22:28S 33°07' E 152°14'1 2.3
2018-Jun-22 21:58S 33°08' E 152°13'1 2.3
2018-Jun-22 21:28S 33°09' E 152°12'1 1.8
2018-Jun-22 20:58S 33°10' E 152°12'1 1.5
2018-Jun-22 20:28S 33°10' E 152°11'1 1.3
2018-Jun-22 19:58S 33°11' E 152°11'1 1.1
2018-Jun-22 19:28S 33°11' E 152°10'0 0.9
2018-Jun-22 18:58S 33°11' E 152°10'1 0.9
2018-Jun-22 18:10S 33°12' E 152°09'0 0.8
2018-Jun-22 17:58S 33°12' E 152°09'0 0.8
2018-Jun-22 17:28S 33°12' E 152°09'0 0.8
2018-Jun-22 16:58S 33°13' E 152°08'0 0.8
2018-Jun-22 16:28S 33°13' E 152°08'0 0.6
2018-Jun-22 15:58S 33°13' E 152°07'0 0.7
2018-Jun-22 15:28S 33°13' E 152°07'0 0.7
2018-Jun-22 14:52S 33°13' E 152°06'0 0.7
2018-Jun-22 14:16S 33°13' E 152°06'0 0.9
2018-Jun-22 13:58S 33°13' E 152°06'1 1.0
2018-Jun-22 12:52S 33°12' E 152°04'1 1.6
2018-Jun-22 12:28S 33°12' E 152°04'2 4.7
2018-Jun-22 12:01S 33°14' E 152°02'5 9.9
2018-Jun-22 11:31S 33°16' E 151°56'3 2.0
2018-Jun-22 10:01S 33°18' E 151°54'0 1.1
2018-Jun-22 09:58S 33°18' E 151°54'1 1.2
2018-Jun-22 09:28S 33°18' E 151°55'1 1.3
2018-Jun-22 08:58S 33°18' E 151°55'1 1.3
2018-Jun-22 08:04S 33°17' E 151°57'0 1.2
2018-Jun-22 07:58S 33°17' E 151°57'3 0.5
2018-Jun-22 01:56S 33°15' E 151°59'510.1
2018-Jun-22 01:25S 33°14' E 151°53'0 0.1
2018-Jun-21 20:55S 33°15' E 151°52'1 1.3
2018-Jun-21 20:28S 33°14' E 151°53'4 1.3
2018-Jun-21 17:25S 33°12' E 151°57'1 1.3
2018-Jun-21 16:52S 33°12' E 151°57'1 1.4
2018-Jun-21 16:28S 33°12' E 151°58'1 1.3
2018-Jun-21 15:55S 33°11' E 151°59'1 1.5
2018-Jun-21 15:28S 33°11' E 151°60'2 1.6
2018-Jun-21 14:01S 33°10' E 152°02'0 2.1
2018-Jun-21 13:58S 33°10' E 152°02'1 1.5
2018-Jun-21 13:25S 33°10' E 152°03'1 1.6
2018-Jun-21 12:55S 33°10' E 152°04'1 1.5
2018-Jun-21 12:25S 33°09' E 152°05'1 1.5
2018-Jun-21 11:55S 33°09' E 152°06'1 1.5
2018-Jun-21 11:28S 33°09' E 152°07'1 1.3
2018-Jun-21 10:55S 33°09' E 152°07'2 4.3
2018-Jun-21 10:31S 33°07' E 152°06'5 9.5
2018-Jun-21 10:01S 33°04' E 152°02'4 8.9
2018-Jun-21 09:31S 33°00' E 151°59'1 1.5
2018-Jun-21 09:00S 33°00' E 152°00'1 1.1
2018-Jun-21 08:27S 33°00' E 152°01'0 1.1
2018-Jun-21 08:00S 33°01' E 152°01'1 1.0
2018-Jun-21 07:30S 33°01' E 152°01'0 1.0
2018-Jun-21 07:00S 33°02' E 152°02'0 0.9
2018-Jun-21 06:30S 33°02' E 152°02'1 1.0
2018-Jun-21 05:56S 33°02' E 152°02'0 0.9
2018-Jun-21 05:29S 33°03' E 152°03'0 0.8
2018-Jun-21 04:59S 33°03' E 152°03'0 0.8
2018-Jun-21 04:29S 33°04' E 152°02'2 3.1
2018-Jun-21 04:00S 33°04' E 152°01'3 7.1
2018-Jun-21 03:30S 33°06' E 151°58'1 1.1
2018-Jun-21 02:49S 33°06' E 151°58'0 0.7
2018-Jun-21 02:28S 33°06' E 151°59'0 0.6
2018-Jun-21 01:55S 33°06' E 151°59'0 0.6
2018-Jun-21 01:30S 33°06' E 151°59'0 0.4
2018-Jun-21 01:01S 33°06' E 151°59'1 2.4
2018-Jun-21 00:31S 33°05' E 151°58'3 5.4
2018-Jun-21 00:00S 33°03' E 151°56'1 1.6
2018-Jun-20 23:30S 33°03' E 151°57'1 1.6
2018-Jun-20 23:00S 33°04' E 151°58'1 1.5
2018-Jun-20 22:30S 33°04' E 151°58'1 1.3
2018-Jun-20 22:00S 33°05' E 151°59'0 0.7
2018-Jun-20 21:30S 33°04' E 151°59'2 4.5
2018-Jun-20 21:00S 33°02' E 151°59'5 9.5
2018-Jun-20 20:30S 32°57' E 151°59'4 8.2
2018-Jun-20 20:00S 32°55' E 152°03'5 9.8
2018-Jun-20 19:31S 32°54' E 152°09'5 9.6
2018-Jun-20 19:00S 32°53' E 152°14'510.1
2018-Jun-20 18:30S 32°51' E 152°20'510.1
2018-Jun-20 18:00S 32°49' E 152°26'5 9.9
2018-Jun-20 17:30S 32°46' E 152°30'5 9.7
2018-Jun-20 17:00S 32°43' E 152°34'5 9.5
2018-Jun-20 16:30S 32°39' E 152°38'5 9.3
2018-Jun-20 16:00S 32°36' E 152°42'5 9.4
2018-Jun-20 15:29S 32°32' E 152°46'292 7.0
2018-Jun-18 21:52S 27°46' E 153°54'  

Dump ship's entire track history